Time;durP1;ratioP1;P1;durP2;ratioP2;P2;SDS_P1;SDS_P2;PMS_P1;PMS_P2;Temp;Humidity;BMP_temperature;BMP_pressure;BME280_temperature;BME280_humidity;BME280_pressure;Samples;Min_cycle;Max_cycle;Signal;HPM_P1;HPM_P2
2022/04/05 00:00:01;;;;;;;6.80;6.20;;;8.40;99.90;;;;;;5052774;28;20247;-38
2022/04/05 00:02:26;;;;;;;7.30;6.60;;;8.40;99.90;;;;;;5047164;28;20280;-38
2022/04/05 00:04:52;;;;;;;7.47;6.40;;;8.50;99.90;;;;;;5046272;28;20182;-37
2022/04/05 00:07:18;;;;;;;7.00;6.30;;;8.50;99.90;;;;;;5061031;28;20194;-37
2022/04/05 00:09:43;;;;;;;7.17;6.47;;;8.50;99.90;;;;;;5066619;28;20213;-37
2022/04/05 00:12:09;;;;;;;6.80;6.10;;;8.70;99.90;;;;;;5046590;28;20197;-37
2022/04/05 00:14:35;;;;;;;6.77;6.00;;;8.60;99.90;;;;;;5049840;28;20221;-38
2022/04/05 00:17:02;;;;;;;7.40;6.40;;;8.60;99.90;;;;;;5047917;28;20193;-39
2022/04/05 00:19:28;;;;;;;8.60;7.70;;;8.60;99.90;;;;;;5047744;28;20712;-34
2022/04/05 00:21:54;;;;;;;9.93;7.70;;;8.80;99.90;;;;;;5061691;28;20435;-34
2022/04/05 00:24:21;;;;;;;10.30;9.27;;;8.50;99.90;;;;;;5073035;28;20897;-36
2022/04/05 00:26:47;;;;;;;8.90;7.70;;;8.60;99.90;;;;;;5047779;28;20193;-38
2022/04/05 00:29:12;;;;;;;10.53;9.40;;;8.60;99.90;;;;;;5056443;28;20427;-40
2022/04/05 00:31:38;;;;;;;9.90;8.70;;;8.60;99.90;;;;;;5051388;28;20540;-40
2022/04/05 00:34:04;;;;;;;12.67;9.13;;;8.60;99.90;;;;;;5047274;28;20529;-40
2022/04/05 00:36:29;;;;;;;8.07;7.17;;;8.60;99.90;;;;;;5049286;28;20204;-40
2022/04/05 00:38:55;;;;;;;7.90;7.10;;;8.60;99.90;;;;;;5073075;28;20267;-39
2022/04/05 00:41:21;;;;;;;8.87;7.97;;;8.60;99.90;;;;;;5050008;28;20606;-37
2022/04/05 00:43:46;;;;;;;8.20;7.40;;;8.60;99.90;;;;;;5050570;28;20683;-38
2022/04/05 00:46:12;;;;;;;9.57;8.20;;;8.70;99.90;;;;;;5051642;28;20243;-40
2022/04/05 00:48:49;;;;;;;10.00;7.30;;;8.60;99.90;;;;;;5047383;28;20204;-40
2022/04/05 00:51:15;;;;;;;9.70;8.10;;;8.80;99.90;;;;;;5049526;28;20186;-38
2022/04/05 00:53:47;;;;;;;12.20;9.37;;;8.70;99.90;;;;;;5066224;28;20555;-37
2022/04/05 00:56:17;;;;;;;10.90;8.07;;;8.80;99.90;;;;;;5061414;28;20444;-40
2022/04/05 00:59:02;;;;;;;10.00;8.83;;;8.60;99.90;;;;;;5048626;28;20919;-38
2022/04/05 01:01:29;;;;;;;9.07;7.60;;;8.70;99.90;;;;;;5046551;28;20545;-37
2022/04/05 01:03:55;;;;;;;11.80;9.60;;;8.70;99.90;;;;;;5045764;28;21004;-40
2022/04/05 01:06:30;;;;;;;10.90;9.30;;;8.80;99.90;;;;;;5046780;28;20950;-39
2022/04/05 01:08:57;;;;;;;12.17;10.23;;;8.80;99.90;;;;;;5066895;28;20431;-38
2022/04/05 01:11:23;;;;;;;10.17;8.90;;;8.90;99.90;;;;;;5046284;28;20852;-40
2022/04/05 01:13:49;;;;;;;11.27;9.90;;;8.90;99.90;;;;;;5048242;28;20563;-41
2022/04/05 01:16:15;;;;;;;11.07;9.20;;;8.90;99.90;;;;;;5057385;28;20866;-37
2022/04/05 01:18:40;;;;;;;10.97;9.43;;;8.90;99.90;;;;;;5046978;28;20185;-37
2022/04/05 01:21:06;;;;;;;10.50;8.83;;;8.90;99.90;;;;;;5045851;28;20965;-35
2022/04/05 01:23:32;;;;;;;10.07;7.90;;;9.00;99.90;;;;;;5057830;28;20243;-40
2022/04/05 01:25:58;;;;;;;8.77;7.70;;;8.80;99.90;;;;;;5063455;28;20428;-38
2022/04/05 01:28:24;;;;;;;8.93;7.83;;;8.90;99.90;;;;;;5049057;28;20185;-35
2022/04/05 01:30:51;;;;;;;7.60;6.60;;;8.90;99.90;;;;;;5056661;28;20212;-36
2022/04/05 01:33:16;;;;;;;9.17;7.97;;;8.90;99.90;;;;;;5046481;28;20468;-40
2022/04/05 01:35:42;;;;;;;9.00;7.47;;;9.10;99.90;;;;;;5046701;28;20780;-40
2022/04/05 01:38:09;;;;;;;9.77;8.13;;;8.90;99.90;;;;;;5049357;28;20757;-37
2022/04/05 01:40:35;;;;;;;9.97;8.40;;;9.10;99.90;;;;;;5063483;28;20189;-37
2022/04/05 01:43:01;;;;;;;9.90;8.23;;;8.90;99.90;;;;;;5046696;28;20527;-41
2022/04/05 01:45:27;;;;;;;10.20;8.00;;;8.90;99.90;;;;;;5049861;28;20424;-38
2022/04/05 01:47:52;;;;;;;10.10;8.43;;;8.90;99.90;;;;;;5046799;28;20478;-39
2022/04/05 01:50:18;;;;;;;11.40;9.87;;;9.00;99.90;;;;;;5046456;28;20715;-41
2022/04/05 01:52:44;;;;;;;11.90;9.23;;;9.00;99.90;;;;;;5053400;28;20196;-38
2022/04/05 01:55:09;;;;;;;11.27;8.53;;;9.20;99.90;;;;;;5071707;28;20182;-39
2022/04/05 01:57:35;;;;;;;12.23;9.60;;;9.20;99.90;;;;;;5050647;28;20335;-40
2022/04/05 02:00:02;;;;;;;12.47;9.87;;;9.10;99.90;;;;;;5057241;28;20181;-36
2022/04/05 02:02:28;;;;;;;13.47;10.50;;;9.30;99.90;;;;;;5054851;28;20239;-40
2022/04/05 02:04:54;;;;;;;11.00;9.37;;;9.10;99.90;;;;;;5048616;28;20424;-35
2022/04/05 02:07:20;;;;;;;9.50;8.47;;;9.30;99.90;;;;;;5055003;28;20243;-37
2022/04/05 02:09:48;;;;;;;8.53;7.27;;;9.30;99.90;;;;;;5068864;28;20184;-39
2022/04/05 02:12:15;;;;;;;7.23;6.47;;;9.30;99.90;;;;;;5054793;28;20915;-38
2022/04/05 02:14:41;;;;;;;6.60;5.67;;;9.20;99.90;;;;;;5054221;28;20838;-39
2022/04/05 02:17:07;;;;;;;5.63;5.03;;;9.20;99.90;;;;;;5052761;28;20428;-37
2022/04/05 02:19:34;;;;;;;5.77;4.70;;;9.20;99.90;;;;;;5049730;28;20192;-39
2022/04/05 02:22:00;;;;;;;4.87;4.47;;;9.10;99.90;;;;;;5054645;28;20430;-38
2022/04/05 02:24:26;;;;;;;5.10;4.20;;;9.00;99.90;;;;;;5075521;28;20454;-38
2022/04/05 02:26:52;;;;;;;4.43;4.03;;;9.00;99.90;;;;;;5053916;28;20702;-34
2022/04/05 02:29:17;;;;;;;4.30;3.90;;;9.10;99.90;;;;;;5050077;28;20181;-38
2022/04/05 02:31:43;;;;;;;3.90;3.17;;;8.90;99.90;;;;;;5052241;28;20567;-34
2022/04/05 02:34:09;;;;;;;2.83;2.30;;;9.10;99.90;;;;;;5050258;28;20218;-39
2022/04/05 02:36:35;;;;;;;2.30;2.10;;;9.10;99.90;;;;;;5049154;28;20185;-36
2022/04/05 02:39:01;;;;;;;1.90;1.80;;;9.10;99.90;;;;;;5070216;28;20414;-37
2022/04/05 02:41:27;;;;;;;1.67;1.57;;;9.00;99.90;;;;;;5055180;28;20428;-38
2022/04/05 02:43:53;;;;;;;2.10;1.93;;;9.00;99.90;;;;;;5049643;28;20221;-40
2022/04/05 02:46:19;;;;;;;2.63;1.93;;;9.00;99.90;;;;;;5061982;28;20700;-37
2022/04/05 02:48:46;;;;;;;2.17;1.97;;;9.00;99.90;;;;;;5049537;28;20423;-39
2022/04/05 02:51:15;;;;;;;2.37;2.17;;;8.90;99.90;;;;;;5048812;28;20420;-37
2022/04/05 02:53:42;;;;;;;2.67;2.47;;;8.90;99.90;;;;;;5058932;28;20455;-38
2022/04/05 02:56:09;;;;;;;2.93;2.73;;;8.90;99.90;;;;;;5068383;28;20432;-40
2022/04/05 02:58:35;;;;;;;2.70;2.50;;;9.00;99.90;;;;;;5049485;28;20563;-37
2022/04/05 03:01:02;;;;;;;3.43;2.60;;;8.90;99.90;;;;;;5056994;28;20416;-37
2022/04/05 03:03:29;;;;;;;3.30;3.00;;;8.90;99.90;;;;;;5047788;28;20521;-37
2022/04/05 03:05:54;;;;;;;4.07;3.67;;;9.00;99.90;;;;;;5048818;28;20994;-37
2022/04/05 03:08:21;;;;;;;3.53;3.23;;;8.80;99.90;;;;;;5067612;28;20192;-39
2022/04/05 03:10:47;;;;;;;4.37;3.97;;;8.80;99.90;;;;;;5070030;28;20631;-39
2022/04/05 03:13:13;;;;;;;4.70;4.30;;;8.80;99.90;;;;;;5058184;28;20460;-40
2022/04/05 03:15:38;;;;;;;4.30;3.87;;;8.70;99.90;;;;;;5053097;28;20276;-34
2022/04/05 03:18:04;;;;;;;5.20;4.60;;;8.80;99.90;;;;;;5048999;28;20265;-40
2022/04/05 03:20:31;;;;;;;4.37;3.70;;;9.00;99.90;;;;;;5048092;28;20213;-40
2022/04/05 03:22:59;;;;;;;4.87;4.40;;;8.60;99.90;;;;;;5060640;28;20299;-40
2022/04/05 03:25:24;;;;;;;5.13;4.07;;;8.70;99.90;;;;;;5074393;28;20463;-40
2022/04/05 03:27:50;;;;;;;4.40;3.97;;;8.70;99.90;;;;;;5048804;28;20456;-41
2022/04/05 03:30:17;;;;;;;4.20;3.80;;;8.60;99.90;;;;;;5060193;28;20687;-37
2022/04/05 03:32:43;;;;;;;3.97;3.57;;;8.70;99.90;;;;;;5048667;28;20595;-37
2022/04/05 03:35:09;;;;;;;4.00;3.70;;;8.90;99.90;;;;;;5048838;28;20424;-39
2022/04/05 03:37:35;;;;;;;3.57;3.23;;;8.70;99.90;;;;;;5050722;28;20217;-40
2022/04/05 03:40:02;;;;;;;3.57;3.27;;;8.80;99.90;;;;;;5052925;28;20753;-38
2022/04/05 03:42:28;;;;;;;3.40;3.07;;;8.90;99.90;;;;;;5052484;28;20425;-36
2022/04/05 03:44:54;;;;;;;3.50;3.20;;;8.70;99.90;;;;;;5049296;28;20478;-36
2022/04/05 03:47:19;;;;;;;3.63;3.30;;;8.70;99.90;;;;;;5056581;28;20248;-39
2022/04/05 03:49:45;;;;;;;3.43;3.13;;;8.60;99.90;;;;;;5048321;28;20714;-38
2022/04/05 03:52:11;;;;;;;3.53;3.07;;;8.50;99.90;;;;;;5047370;28;20182;-38
2022/04/05 03:54:37;;;;;;;4.20;3.80;;;8.60;99.90;;;;;;5061777;28;20494;-39
2022/04/05 03:57:03;;;;;;;4.77;4.37;;;8.60;99.90;;;;;;5062675;28;20220;-39
2022/04/05 03:59:29;;;;;;;5.47;4.97;;;8.60;99.90;;;;;;5048203;28;20186;-38
2022/04/05 04:01:54;;;;;;;5.70;5.20;;;8.60;99.90;;;;;;5052565;28;20424;-40
2022/04/05 04:04:20;;;;;;;6.10;5.50;;;8.50;99.90;;;;;;5046521;28;20198;-40
2022/04/05 04:06:46;;;;;;;6.57;5.97;;;8.60;99.90;;;;;;5047146;28;20668;-37
2022/04/05 04:09:11;;;;;;;6.30;5.80;;;8.50;99.90;;;;;;5057153;28;20805;-37
2022/04/05 04:11:40;;;;;;;5.50;5.00;;;8.60;99.90;;;;;;5067668;28;20192;-39
2022/04/05 04:14:07;;;;;;;4.80;4.40;;;8.60;99.90;;;;;;5047778;28;20209;-37
2022/04/05 04:16:33;;;;;;;6.00;5.50;;;8.70;99.90;;;;;;5048771;28;20424;-36
2022/04/05 04:18:59;;;;;;;5.60;5.10;;;8.50;99.90;;;;;;5047646;28;20436;-34
2022/04/05 04:21:25;;;;;;;6.13;5.60;;;8.60;99.90;;;;;;5046951;28;20775;-36
2022/04/05 04:23:51;;;;;;;7.63;6.20;;;8.70;99.90;;;;;;5057858;28;20427;-36
2022/04/05 04:26:17;;;;;;;5.70;5.20;;;8.60;99.90;;;;;;5064054;28;20493;-40
2022/04/05 04:28:42;;;;;;;6.87;6.00;;;8.70;99.90;;;;;;5053029;28;20347;-36
2022/04/05 04:31:08;;;;;;;7.23;6.03;;;8.40;99.90;;;;;;5067203;28;20427;-34
2022/04/05 04:33:34;;;;;;;6.90;6.30;;;8.50;99.90;;;;;;5062493;28;20205;-36
2022/04/05 04:35:59;;;;;;;7.50;6.70;;;8.40;99.90;;;;;;5047291;28;20193;-34
2022/04/05 04:38:25;;;;;;;7.77;6.97;;;8.40;99.90;;;;;;5053753;28;20184;-40
2022/04/05 04:40:52;;;;;;;7.93;7.10;;;8.40;99.90;;;;;;5058620;28;20921;-37
2022/04/05 04:43:18;;;;;;;7.77;6.97;;;8.50;99.90;;;;;;5055863;28;20428;-37
2022/04/05 04:45:44;;;;;;;8.13;7.13;;;8.50;99.90;;;;;;5081316;28;20422;-35
2022/04/05 04:48:10;;;;;;;9.03;8.13;;;8.70;99.90;;;;;;5049581;28;20417;-38
2022/04/05 04:50:36;;;;;;;8.73;7.30;;;8.50;99.90;;;;;;5050025;28;20478;-38
2022/04/05 04:53:02;;;;;;;7.80;7.00;;;8.50;99.90;;;;;;5059467;28;21323;-38
2022/04/05 04:55:28;;;;;;;8.33;7.27;;;8.50;99.90;;;;;;5068879;28;20586;-35
2022/04/05 04:57:54;;;;;;;8.13;6.90;;;8.60;99.90;;;;;;5048099;28;20447;-37
2022/04/05 05:00:20;;;;;;;7.50;6.13;;;8.40;99.90;;;;;;5046994;28;20255;-40
2022/04/05 05:02:50;;;;;;;8.33;7.40;;;8.40;99.90;;;;;;5047963;28;20424;-38
2022/04/05 05:05:19;;;;;;;8.23;7.20;;;8.30;99.90;;;;;;5045294;28;20423;-38
2022/04/05 05:07:45;;;;;;;8.03;7.17;;;8.40;99.90;;;;;;5050275;28;20509;-37
2022/04/05 05:10:11;;;;;;;6.77;6.07;;;8.50;99.90;;;;;;5065549;28;20418;-39
2022/04/05 05:12:40;;;;;;;6.50;5.80;;;8.40;99.90;;;;;;5059770;28;20429;-39
2022/04/05 05:15:10;;;;;;;7.67;6.80;;;8.40;99.90;;;;;;5047038;28;20413;-40
2022/04/05 05:17:36;;;;;;;6.83;6.13;;;8.70;99.90;;;;;;5057161;28;20455;-37
2022/04/05 05:20:03;;;;;;;5.67;5.07;;;8.60;99.90;;;;;;5046439;28;20430;-38
2022/04/05 05:22:29;;;;;;;6.10;5.50;;;8.50;99.90;;;;;;5052511;28;20431;-39
2022/04/05 05:24:54;;;;;;;5.83;5.23;;;8.50;99.90;;;;;;5066139;28;20407;-35
2022/04/05 05:27:20;;;;;;;8.03;6.00;;;8.70;99.90;;;;;;5061925;28;20548;-38
2022/04/05 05:29:46;;;;;;;7.40;6.07;;;8.60;99.90;;;;;;5064145;28;20606;-40
2022/04/05 05:32:12;;;;;;;8.23;6.90;;;8.50;99.90;;;;;;5064603;28;20192;-40
2022/04/05 05:34:37;;;;;;;7.80;7.00;;;8.50;99.90;;;;;;5049384;28;20749;-35
2022/04/05 05:37:05;;;;;;;7.70;6.50;;;8.50;99.90;;;;;;5051286;28;20228;-39
2022/04/05 05:39:31;;;;;;;7.50;6.40;;;8.60;99.90;;;;;;5073089;28;20188;-38
2022/04/05 05:41:57;;;;;;;8.33;7.30;;;8.60;99.90;;;;;;5066944;28;20786;-40
2022/04/05 05:44:23;;;;;;;9.90;7.67;;;8.60;99.90;;;;;;5057243;28;20425;-38
2022/04/05 05:46:49;;;;;;;8.93;7.70;;;8.70;99.90;;;;;;5052960;28;20181;-39
2022/04/05 05:49:15;;;;;;;8.60;7.60;;;8.70;99.90;;;;;;5050703;28;20510;-35
2022/04/05 05:51:40;;;;;;;9.57;8.47;;;8.70;99.90;;;;;;5060883;28;20189;-35
2022/04/05 05:54:07;;;;;;;10.40;9.03;;;8.90;99.90;;;;;;5075202;28;20690;-36
2022/04/05 05:56:33;;;;;;;8.50;7.30;;;8.70;99.90;;;;;;5070015;28;20705;-37
2022/04/05 05:58:59;;;;;;;9.30;8.13;;;8.70;99.90;;;;;;5050942;28;20535;-41
2022/04/05 06:01:24;;;;;;;10.03;8.90;;;8.60;99.90;;;;;;5054789;28;20452;-39
2022/04/05 06:03:50;;;;;;;11.90;9.30;;;8.70;99.90;;;;;;5055787;28;20197;-40
2022/04/05 06:06:16;;;;;;;10.17;8.37;;;8.70;99.90;;;;;;5050499;28;20668;-38
2022/04/05 06:08:42;;;;;;;11.50;9.20;;;8.90;99.90;;;;;;5055889;28;20517;-38
2022/04/05 06:11:08;;;;;;;11.80;9.30;;;9.00;99.90;;;;;;5062444;28;20474;-37
2022/04/05 06:13:34;;;;;;;11.63;8.53;;;8.60;99.90;;;;;;5073291;28;20216;-39
2022/04/05 06:16:00;;;;;;;12.10;10.10;;;8.70;99.90;;;;;;5066598;28;20650;-41
2022/04/05 06:18:25;;;;;;;12.23;9.37;;;8.80;99.90;;;;;;5056803;28;20522;-38
2022/04/05 06:20:51;;;;;;;10.20;8.60;;;8.80;99.90;;;;;;5049148;28;20469;-36
2022/04/05 06:23:17;;;;;;;9.63;7.60;;;8.70;99.90;;;;;;5060695;28;20193;-40
2022/04/05 06:25:43;;;;;;;10.83;8.23;;;8.70;99.90;;;;;;5061623;28;20679;-40
2022/04/05 06:28:09;;;;;;;9.60;7.83;;;9.00;99.90;;;;;;5059685;28;20205;-37
2022/04/05 06:30:37;;;;;;;9.47;7.07;;;8.80;99.90;;;;;;5049271;28;20446;-40
2022/04/05 06:33:12;;;;;;;9.93;8.10;;;8.90;99.90;;;;;;5053174;28;20551;-40
2022/04/05 06:35:43;;;;;;;8.93;7.20;;;8.90;99.90;;;;;;5049948;28;20427;-36
2022/04/05 06:38:09;;;;;;;11.40;8.73;;;9.00;99.90;;;;;;5050171;28;20476;-40
2022/04/05 06:40:36;;;;;;;11.43;8.53;;;8.90;99.90;;;;;;5064328;28;20506;-38
2022/04/05 06:43:01;;;;;;;11.10;8.27;;;8.90;99.90;;;;;;5064713;28;20859;-40
2022/04/05 06:45:27;;;;;;;11.70;8.73;;;8.90;99.90;;;;;;5049774;28;20555;-34
2022/04/05 06:47:53;;;;;;;11.77;9.67;;;9.10;99.90;;;;;;5062247;28;20541;-38
2022/04/05 06:50:26;;;;;;;14.30;11.70;;;9.00;99.90;;;;;;5049112;28;20431;-39
2022/04/05 06:52:53;;;;;;;15.30;11.53;;;9.40;99.90;;;;;;5050314;28;20214;-39
2022/04/05 06:55:19;;;;;;;17.30;13.40;;;9.20;99.90;;;;;;5064209;28;20424;-40
2022/04/05 06:57:45;;;;;;;17.03;13.50;;;9.20;99.90;;;;;;5062257;28;20444;-34
2022/04/05 07:00:12;;;;;;;16.23;12.73;;;9.30;99.90;;;;;;5048714;28;20186;-36
2022/04/05 07:02:39;;;;;;;13.80;11.50;;;9.40;99.90;;;;;;5058139;28;20196;-38
2022/04/05 07:05:06;;;;;;;17.63;13.37;;;9.30;99.90;;;;;;5047198;28;20416;-37
2022/04/05 07:07:32;;;;;;;18.23;13.80;;;9.40;99.90;;;;;;5049057;28;20412;-39
2022/04/05 07:09:58;;;;;;;16.43;12.83;;;9.30;99.90;;;;;;5064887;28;20505;-40
2022/04/05 07:12:24;;;;;;;16.97;13.47;;;9.50;99.90;;;;;;5070581;28;20416;-34
2022/04/05 07:14:51;;;;;;;18.27;13.10;;;9.40;99.90;;;;;;5058766;28;20472;-38
2022/04/05 07:17:17;;;;;;;15.60;12.73;;;9.80;99.90;;;;;;5056912;28;20173;-37
2022/04/05 07:19:43;;;;;;;16.67;13.03;;;9.50;99.90;;;;;;5057399;28;20441;-40
2022/04/05 07:22:09;;;;;;;16.30;13.10;;;9.60;99.90;;;;;;5058810;28;20439;-35
2022/04/05 07:24:34;;;;;;;15.03;12.40;;;9.60;99.90;;;;;;5060918;28;20777;-41
2022/04/05 07:27:00;;;;;;;16.60;12.90;;;9.80;99.90;;;;;;5072081;28;20205;-39
2022/04/05 07:29:26;;;;;;;17.37;13.10;;;9.70;99.90;;;;;;5062305;28;20280;-39
2022/04/05 07:31:52;;;;;;;16.87;12.23;;;9.70;99.90;;;;;;5058005;28;20579;-39
2022/04/05 07:34:17;;;;;;;19.10;13.97;;;9.90;99.90;;;;;;5056351;28;20459;-35
2022/04/05 07:36:43;;;;;;;18.87;15.10;;;9.80;99.90;;;;;;5048765;28;20194;-39
2022/04/05 07:39:09;;;;;;;18.40;14.40;;;9.90;99.90;;;;;;5049787;28;20184;-36
2022/04/05 07:41:35;;;;;;;20.00;15.67;;;9.60;99.90;;;;;;5066608;28;20657;-37
2022/04/05 07:44:01;;;;;;;20.33;15.53;;;9.80;99.90;;;;;;5058861;28;20248;-40
2022/04/05 07:46:26;;;;;;;20.23;14.83;;;10.00;99.90;;;;;;5048729;28;20726;-38
2022/04/05 07:48:52;;;;;;;18.80;14.90;;;9.90;99.90;;;;;;5057635;28;20431;-39
2022/04/05 07:51:18;;;;;;;17.37;14.40;;;9.90;99.90;;;;;;5056735;28;20250;-41
2022/04/05 07:53:44;;;;;;;19.17;15.50;;;9.90;99.90;;;;;;5060615;28;20203;-39
2022/04/05 07:56:13;;;;;;;18.30;14.67;;;10.00;99.90;;;;;;5069155;28;20568;-37
2022/04/05 07:58:40;;;;;;;19.13;14.37;;;10.10;99.90;;;;;;5075154;28;20412;-37
2022/04/05 08:01:08;;;;;;;16.70;13.60;;;10.00;99.90;;;;;;5049398;28;20424;-40
2022/04/05 08:03:34;;;;;;;18.93;15.70;;;9.90;99.90;;;;;;5052193;28;20424;-39
2022/04/05 08:06:00;;;;;;;18.40;14.77;;;9.70;99.90;;;;;;5048343;28;20428;-35
2022/04/05 08:08:26;;;;;;;20.67;15.87;;;9.90;99.90;;;;;;5047887;28;20202;-41
2022/04/05 08:10:51;;;;;;;22.40;15.13;;;9.90;99.90;;;;;;5071444;28;20899;-41
2022/04/05 08:13:17;;;;;;;18.37;14.20;;;9.90;99.90;;;;;;5059997;28;20221;-34
2022/04/05 08:15:43;;;;;;;17.50;13.40;;;9.90;99.90;;;;;;5048153;28;20196;-36
2022/04/05 08:18:09;;;;;;;16.80;13.33;;;10.10;99.90;;;;;;5049128;28;20420;-38
2022/04/05 08:20:36;;;;;;;15.13;12.27;;;10.00;99.90;;;;;;5047557;28;20714;-35
2022/04/05 08:23:03;;;;;;;15.40;12.63;;;9.90;99.90;;;;;;5057857;28;20423;-40
2022/04/05 08:25:29;;;;;;;16.30;13.00;;;10.10;99.90;;;;;;5068503;28;20435;-39
2022/04/05 08:27:55;;;;;;;17.30;12.70;;;10.00;99.90;;;;;;5052071;28;20794;-36
2022/04/05 08:30:21;;;;;;;16.47;12.60;;;10.10;99.90;;;;;;5048581;28;20431;-39
2022/04/05 08:32:48;;;;;;;19.50;14.53;;;10.20;99.90;;;;;;5055399;28;20427;-34
2022/04/05 08:35:17;;;;;;;17.10;13.40;;;10.00;99.90;;;;;;5049548;28;21018;-38
2022/04/05 08:37:43;;;;;;;15.23;12.30;;;10.00;99.90;;;;;;5047029;28;20472;-36
2022/04/05 08:40:12;;;;;;;18.17;14.03;;;10.00;99.90;;;;;;5047477;28;20436;-38
2022/04/05 08:42:41;;;;;;;17.17;14.10;;;10.00;99.90;;;;;;5066827;28;20469;-37
2022/04/05 08:45:10;;;;;;;19.03;14.40;;;10.20;99.90;;;;;;5047414;28;20423;-38
2022/04/05 08:47:41;;;;;;;15.17;12.50;;;10.10;99.90;;;;;;5053029;28;20752;-34
2022/04/05 08:50:08;;;;;;;17.77;14.13;;;10.10;99.90;;;;;;5046634;28;20420;-37
2022/04/05 08:52:34;;;;;;;16.53;13.40;;;10.20;99.90;;;;;;5047097;28;20435;-39
2022/04/05 08:55:00;;;;;;;20.93;14.53;;;10.20;99.90;;;;;;5047348;28;20440;-39
2022/04/05 08:57:26;;;;;;;18.70;14.33;;;10.10;99.90;;;;;;5067136;28;20427;-39
2022/04/05 08:59:52;;;;;;;20.40;14.70;;;10.10;99.90;;;;;;5046698;28;21177;-38
2022/04/05 09:02:27;;;;;;;18.07;14.43;;;10.10;99.90;;;;;;5049347;28;20652;-38
2022/04/05 09:04:53;;;;;;;17.03;13.47;;;10.10;99.90;;;;;;5046695;28;20431;-37
2022/04/05 09:07:23;;;;;;;19.37;13.97;;;10.20;99.90;;;;;;5047206;28;20923;-33
2022/04/05 09:10:10;;;;;;;16.03;13.73;;;10.10;99.90;;;;;;5054523;28;20215;-37
2022/04/05 09:12:43;;;;;;;16.13;13.17;;;10.20;99.90;;;;;;5062270;28;20424;-37
2022/04/05 09:15:29;;;;;;;22.43;15.20;;;10.30;99.90;;;;;;5064484;28;20422;-40
2022/04/05 09:17:55;;;;;;;18.73;13.87;;;10.50;99.90;;;;;;5048249;28;20831;-40
2022/04/05 09:20:24;;;;;;;17.97;14.57;;;10.20;99.90;;;;;;5046753;28;20507;-39
2022/04/05 09:22:51;;;;;;;16.40;12.73;;;10.30;99.90;;;;;;5049584;28;20243;-36
2022/04/05 09:25:17;;;;;;;18.03;15.00;;;10.60;99.90;;;;;;5057469;28;20507;-40
2022/04/05 09:27:47;;;;;;;19.70;14.00;;;10.40;99.90;;;;;;5066390;28;20418;-40
2022/04/05 09:30:18;;;;;;;19.70;16.03;;;10.30;99.90;;;;;;5048869;28;20412;-38
2022/04/05 09:32:47;;;;;;;19.00;16.27;;;10.40;99.90;;;;;;5050953;28;20678;-39
2022/04/05 09:35:15;;;;;;;19.10;14.70;;;10.40;99.90;;;;;;5053555;28;20794;-35
2022/04/05 09:37:41;;;;;;;19.83;14.27;;;10.40;99.90;;;;;;5045541;28;20421;-37
2022/04/05 09:40:32;;;;;;;16.40;14.40;;;10.40;99.90;;;;;;5052825;28;20940;-40
2022/04/05 09:42:58;;;;;;;16.50;14.17;;;10.40;99.90;;;;;;5063284;28;20259;-41
2022/04/05 09:45:45;;;;;;;17.63;14.70;;;10.40;99.90;;;;;;5047832;28;20450;-37
2022/04/05 09:48:12;;;;;;;20.10;14.30;;;10.40;99.90;;;;;;5053753;28;20770;-37
2022/04/05 09:50:56;;;;;;;18.10;14.60;;;10.50;99.90;;;;;;5045794;28;20428;-36
2022/04/05 09:53:23;;;;;;;17.90;15.40;;;10.50;99.90;;;;;;5046715;28;20467;-41
2022/04/05 09:56:20;;;;;;;20.70;15.60;;;10.40;99.90;;;;;;5057432;28;20478;-40
2022/04/05 09:58:52;;;;;;;16.90;13.93;;;10.50;99.90;;;;;;5067892;28;20511;-41
2022/04/05 10:01:21;;;;;;;19.13;15.37;;;10.40;99.90;;;;;;5045806;28;20429;-39
2022/04/05 10:04:03;;;;;;;17.73;14.63;;;10.70;99.90;;;;;;5046735;28;20420;-37
2022/04/05 10:06:32;;;;;;;20.10;16.17;;;10.70;99.90;;;;;;5046596;28;20851;-39
2022/04/05 10:08:59;;;;;;;16.70;13.87;;;10.60;99.90;;;;;;5045424;28;20439;-35
2022/04/05 10:11:30;;;;;;;17.00;14.60;;;10.80;99.90;;;;;;5059180;28;20995;-36
2022/04/05 10:13:57;;;;;;;19.90;14.70;;;10.60;99.90;;;;;;5060384;28;20475;-41
2022/04/05 10:16:25;;;;;;;19.00;14.80;;;10.80;99.90;;;;;;5057839;28;20423;-40
2022/04/05 10:18:53;;;;;;;19.07;15.27;;;10.70;99.90;;;;;;5068840;28;20431;-40
2022/04/05 10:21:20;;;;;;;17.60;15.30;;;10.80;99.90;;;;;;5049799;28;20420;-39
2022/04/05 10:23:47;;;;;;;20.70;16.07;;;10.80;99.90;;;;;;5051378;28;20427;-40
2022/04/05 10:26:18;;;;;;;22.77;14.43;;;10.80;99.90;;;;;;5066201;28;20800;-38
2022/04/05 10:28:47;;;;;;;17.47;15.47;;;11.00;99.90;;;;;;5057236;28;22016;-40
2022/04/05 10:31:26;;;;;;;22.20;15.97;;;10.80;99.90;;;;;;5075246;28;20419;-34
2022/04/05 10:34:07;;;;;;;22.20;15.60;;;10.90;99.90;;;;;;5052837;28;21076;-38
2022/04/05 10:36:32;;;;;;;20.60;16.30;;;11.00;99.90;;;;;;5049576;28;20514;-35
2022/04/05 10:39:15;;;;;;;20.50;16.23;;;10.80;99.90;;;;;;5056465;28;20506;-40
2022/04/05 10:41:43;;;;;;;20.73;16.30;;;10.90;99.90;;;;;;5067052;28;20247;-42
2022/04/05 10:44:21;;;;;;;19.00;15.83;;;10.90;99.90;;;;;;5066596;28;20826;-37
2022/04/05 10:46:57;;;;;;;19.67;16.03;;;10.90;99.90;;;;;;5051938;28;20793;-40
2022/04/05 10:49:45;;;;;;;17.87;15.47;;;10.90;99.90;;;;;;5066075;28;20682;-39
2022/04/05 10:52:23;;;;;;;18.50;13.93;;;11.00;99.90;;;;;;5062400;28;20848;-37
2022/04/05 10:55:04;;;;;;;20.00;14.03;;;11.10;99.90;;;;;;5051671;28;20482;-37
2022/04/05 10:57:34;;;;;;;17.70;14.77;;;11.10;99.90;;;;;;5064403;28;20479;-34
2022/04/05 11:00:11;;;;;;;16.47;14.40;;;11.00;99.90;;;;;;5055154;28;20428;-39
2022/04/05 11:02:43;;;;;;;14.13;12.43;;;11.00;99.90;;;;;;5047553;28;20963;-37
2022/04/05 11:05:15;;;;;;;14.73;12.13;;;11.20;99.90;;;;;;5059117;28;20420;-40
2022/04/05 11:07:52;;;;;;;13.77;11.30;;;11.20;99.90;;;;;;5048843;28;20412;-37
2022/04/05 11:10:19;;;;;;;13.93;11.40;;;11.00;99.90;;;;;;5048202;28;20424;-34
2022/04/05 11:12:45;;;;;;;14.37;11.43;;;10.90;99.90;;;;;;5057951;28;20422;-39
2022/04/05 11:15:14;;;;;;;13.67;11.13;;;10.90;99.90;;;;;;5061654;28;20424;-38
2022/04/05 11:17:42;;;;;;;12.10;9.73;;;11.00;99.90;;;;;;5067192;28;20419;-36
2022/04/05 11:20:11;;;;;;;12.10;9.13;;;11.00;99.90;;;;;;5057171;28;20424;-36
2022/04/05 11:22:38;;;;;;;11.37;10.17;;;10.90;99.90;;;;;;5049329;28;20464;-35
2022/04/05 11:25:07;;;;;;;11.60;9.87;;;11.00;99.90;;;;;;5048116;28;20523;-35
2022/04/05 11:27:46;;;;;;;9.73;8.33;;;11.00;99.90;;;;;;5059352;28;21009;-39
2022/04/05 11:30:25;;;;;;;12.27;9.80;;;11.00;99.90;;;;;;5059903;28;20420;-41
2022/04/05 11:33:09;;;;;;;11.00;9.37;;;11.20;99.90;;;;;;5048609;28;20428;-35
2022/04/05 11:35:58;;;;;;;16.60;11.13;;;11.30;99.90;;;;;;5067112;28;20904;-39
2022/04/05 11:38:27;;;;;;;12.33;10.10;;;11.20;99.90;;;;;;5050873;28;20775;-38
2022/04/05 11:41:03;;;;;;;10.20;8.70;;;11.20;99.90;;;;;;5066959;28;20454;-37
2022/04/05 11:43:31;;;;;;;12.93;7.93;;;11.20;99.90;;;;;;5069215;28;20420;-38
2022/04/05 11:46:15;;;;;;;8.87;7.53;;;11.30;99.90;;;;;;5055563;28;20791;-38
2022/04/05 11:48:44;;;;;;;9.23;7.33;;;11.30;99.90;;;;;;5052233;28;20480;-40
2022/04/05 11:51:14;;;;;;;9.07;7.90;;;11.10;99.90;;;;;;5055313;28;20436;-36
2022/04/05 11:53:43;;;;;;;10.90;8.90;;;11.10;99.90;;;;;;5047961;28;20487;-39
2022/04/05 11:56:19;;;;;;;11.90;9.60;;;11.10;99.90;;;;;;5054817;28;20512;-38
2022/04/05 11:58:56;;;;;;;12.67;11.10;;;11.20;99.90;;;;;;5067815;28;20956;-39
2022/04/05 12:01:26;;;;;;;11.90;10.40;;;11.40;99.90;;;;;;5049058;28;20478;-38
2022/04/05 12:04:00;;;;;;;12.37;10.90;;;11.30;99.90;;;;;;5052080;28;20972;-37
2022/04/05 12:06:32;;;;;;;12.10;9.90;;;11.30;99.90;;;;;;5049900;28;20864;-39
2022/04/05 12:09:02;;;;;;;14.67;11.10;;;11.30;99.90;;;;;;5048082;28;20439;-35
2022/04/05 12:11:30;;;;;;;11.00;9.67;;;11.30;99.90;;;;;;5052112;28;20508;-37
2022/04/05 12:13:58;;;;;;;9.43;8.43;;;11.30;99.90;;;;;;5075040;28;21191;-39
2022/04/05 12:16:27;;;;;;;9.90;8.90;;;11.30;99.90;;;;;;5047895;28;20428;-37
2022/04/05 12:18:53;;;;;;;10.70;9.03;;;11.40;99.90;;;;;;5050032;28;20423;-40
2022/04/05 12:21:21;;;;;;;10.23;9.20;;;11.20;99.90;;;;;;5047488;28;20781;-35
2022/04/05 12:23:48;;;;;;;10.87;8.90;;;11.20;99.90;;;;;;5048903;28;20428;-38
2022/04/05 12:26:16;;;;;;;10.97;9.77;;;11.20;99.90;;;;;;5050330;28;20435;-38
2022/04/05 12:28:51;;;;;;;9.63;8.73;;;11.30;99.90;;;;;;5071644;28;20757;-37
2022/04/05 12:31:21;;;;;;;10.50;9.40;;;11.20;99.90;;;;;;5047212;28;20446;-41
2022/04/05 12:34:23;;;;;;;10.27;8.70;;;11.30;99.90;;;;;;5049631;28;20467;-40
2022/04/05 12:37:17;;;;;;;10.43;9.33;;;11.20;99.90;;;;;;5042222;28;20473;-39
2022/04/05 12:39:45;;;;;;;11.10;9.40;;;11.10;99.90;;;;;;5047335;28;20432;-37
2022/04/05 12:42:11;;;;;;;12.27;10.50;;;11.30;99.90;;;;;;5047040;28;20432;-37
2022/04/05 12:44:45;;;;;;;12.00;10.10;;;11.10;99.90;;;;;;5075451;28;20431;-40
2022/04/05 12:47:16;;;;;;;12.23;10.90;;;11.10;99.90;;;;;;5047389;28;20420;-36